Time;durP1;ratioP1;P1;durP2;ratioP2;P2;SDS_P1;SDS_P2;PMS_P1;PMS_P2;Temp;Humidity;BMP_temperature;BMP_pressure;BME280_temperature;BME280_humidity;BME280_pressure;Samples;Min_cycle;Max_cycle;Signal;HPM_P1;HPM_P2
2022/08/19 00:01:39;;;;;;;3.58;1.50;;;;;;;;;;6149778;28;20091;-69
2022/08/19 00:04:41;;;;;;;3.35;1.90;;;;;;;;;;6149079;28;20048;-66
2022/08/19 00:07:44;;;;;;;4.32;2.00;;;;;;;;;;6148563;28;20130;-69
2022/08/19 00:10:47;;;;;;;4.57;1.87;;;;;;;;;;6153357;28;20047;-67
2022/08/19 00:13:49;;;;;;;4.22;1.58;;;;;;;;;;6149829;28;20390;-69
2022/08/19 00:16:53;;;;;;;2.17;1.60;;;;;;;;;;6149435;28;20529;-67
2022/08/19 00:19:55;;;;;;;5.78;2.10;;;;;;;;;;6145436;28;20052;-67
2022/08/19 00:22:57;;;;;;;7.03;2.15;;;;;;;;;;6149070;28;20067;-67
2022/08/19 00:26:00;;;;;;;4.78;1.70;;;;;;;;;;6149266;28;20103;-67
2022/08/19 00:29:02;;;;;;;4.65;1.50;;;;;;;;;;6149232;28;20090;-67
2022/08/19 00:32:04;;;;;;;2.97;1.58;;;;;;;;;;6148879;28;20047;-67
2022/08/19 00:35:07;;;;;;;5.63;1.92;;;;;;;;;;6146039;28;20063;-67
2022/08/19 00:38:08;;;;;;;4.97;2.40;;;;;;;;;;6150228;28;20058;-67
2022/08/19 00:41:14;;;;;;;4.85;1.60;;;;;;;;;;6148445;28;20474;-67
2022/08/19 00:44:19;;;;;;;3.67;1.60;;;;;;;;;;6146450;28;20058;-67
2022/08/19 00:47:21;;;;;;;5.05;1.58;;;;;;;;;;6148150;28;20055;-66
2022/08/19 00:50:23;;;;;;;3.50;1.95;;;;;;;;;;6147220;28;20043;-69
2022/08/19 00:53:27;;;;;;;3.83;1.50;;;;;;;;;;6150043;28;20106;-68
2022/08/19 00:56:31;;;;;;;2.83;1.73;;;;;;;;;;6150464;28;20055;-69
2022/08/19 00:59:34;;;;;;;6.32;1.60;;;;;;;;;;6146942;28;20059;-68
2022/08/19 01:02:36;;;;;;;4.05;1.65;;;;;;;;;;6149116;28;20051;-69
2022/08/19 01:05:38;;;;;;;3.55;2.00;;;;;;;;;;6148133;28;20055;-69
2022/08/19 01:08:40;;;;;;;3.22;1.80;;;;;;;;;;6150100;28;20330;-68
2022/08/19 01:11:44;;;;;;;4.53;1.75;;;;;;;;;;6146429;28;20059;-69
2022/08/19 01:14:46;;;;;;;2.42;1.50;;;;;;;;;;6149314;28;20146;-66
2022/08/19 01:17:48;;;;;;;3.53;1.60;;;;;;;;;;6144470;28;20118;-69
2022/08/19 01:20:50;;;;;;;3.72;1.60;;;;;;;;;;6151071;28;20059;-69
2022/08/19 01:23:54;;;;;;;3.67;1.70;;;;;;;;;;6150103;28;20059;-67
2022/08/19 01:26:55;;;;;;;3.35;1.80;;;;;;;;;;6152046;28;20047;-68
2022/08/19 01:29:57;;;;;;;4.32;1.55;;;;;;;;;;6153172;28;20094;-67
2022/08/19 01:33:00;;;;;;;3.20;1.77;;;;;;;;;;6153283;28;20102;-66
2022/08/19 01:36:09;;;;;;;4.20;1.70;;;;;;;;;;6147810;28;20047;-67
2022/08/19 01:39:15;;;;;;;4.88;1.80;;;;;;;;;;6145771;28;20248;-67
2022/08/19 01:42:16;;;;;;;4.15;1.85;;;;;;;;;;6149759;28;20065;-66
2022/08/19 01:45:19;;;;;;;3.60;2.03;;;;;;;;;;6146657;28;20054;-67
2022/08/19 01:48:21;;;;;;;2.70;1.70;;;;;;;;;;6150056;28;20055;-68
2022/08/19 01:51:23;;;;;;;5.95;1.92;;;;;;;;;;6149039;28;20055;-68
2022/08/19 01:54:26;;;;;;;4.70;2.10;;;;;;;;;;6150437;28;20102;-70
2022/08/19 01:57:28;;;;;;;5.18;1.77;;;;;;;;;;6147164;28;20054;-66
2022/08/19 02:00:31;;;;;;;2.45;1.75;;;;;;;;;;6145356;28;20051;-67
2022/08/19 02:03:34;;;;;;;3.75;1.98;;;;;;;;;;6144426;28;20055;-67
2022/08/19 02:06:36;;;;;;;3.03;2.08;;;;;;;;;;6146243;28;20121;-66
2022/08/19 02:09:39;;;;;;;4.45;2.05;;;;;;;;;;6143667;28;20042;-66
2022/08/19 02:12:40;;;;;;;3.45;1.80;;;;;;;;;;6145174;28;20044;-67
2022/08/19 02:15:42;;;;;;;4.90;1.73;;;;;;;;;;6148255;28;20107;-68
2022/08/19 02:18:44;;;;;;;2.55;1.63;;;;;;;;;;6144093;28;20055;-66
2022/08/19 02:21:46;;;;;;;5.55;2.03;;;;;;;;;;6144450;28;20062;-66
2022/08/19 02:24:48;;;;;;;2.55;1.75;;;;;;;;;;6142510;28;20115;-66
2022/08/19 02:27:50;;;;;;;4.28;1.90;;;;;;;;;;6142811;28;20062;-66
2022/08/19 02:30:52;;;;;;;5.63;1.75;;;;;;;;;;6142358;28;20059;-65
2022/08/19 02:33:54;;;;;;;3.67;1.98;;;;;;;;;;6146394;28;20043;-66
2022/08/19 02:36:55;;;;;;;4.97;1.90;;;;;;;;;;6148655;28;20047;-66
2022/08/19 02:39:58;;;;;;;4.88;1.83;;;;;;;;;;6144104;28;20055;-68
2022/08/19 02:43:00;;;;;;;4.32;1.90;;;;;;;;;;6145423;28;20085;-65
2022/08/19 02:46:02;;;;;;;3.85;1.92;;;;;;;;;;6144028;28;20051;-67
2022/08/19 02:49:06;;;;;;;5.28;2.00;;;;;;;;;;6146405;28;20055;-66
2022/08/19 02:52:08;;;;;;;4.22;1.67;;;;;;;;;;6144805;28;20121;-68
2022/08/19 02:55:11;;;;;;;7.47;2.05;;;;;;;;;;6145452;28;20098;-67
2022/08/19 02:58:15;;;;;;;3.45;1.80;;;;;;;;;;6148056;28;20044;-67
2022/08/19 03:01:22;;;;;;;2.53;1.80;;;;;;;;;;6144951;28;20058;-68
2022/08/19 03:04:24;;;;;;;5.13;1.75;;;;;;;;;;6144463;28;20224;-67
2022/08/19 03:07:25;;;;;;;4.32;2.00;;;;;;;;;;6146701;28;20059;-66
2022/08/19 03:10:28;;;;;;;7.97;2.45;;;;;;;;;;6147089;28;20238;-67
2022/08/19 03:13:30;;;;;;;4.10;1.88;;;;;;;;;;6147787;28;20548;-68
2022/08/19 03:16:35;;;;;;;4.97;2.50;;;;;;;;;;6145405;28;20051;-70
2022/08/19 03:19:38;;;;;;;4.22;2.42;;;;;;;;;;6156191;28;20055;-67
2022/08/19 03:22:39;;;;;;;4.75;1.88;;;;;;;;;;6156597;28;20345;-66
2022/08/19 03:25:44;;;;;;;3.78;1.73;;;;;;;;;;6159805;28;20065;-66
2022/08/19 03:28:47;;;;;;;2.88;1.55;;;;;;;;;;6154599;28;20059;-66
2022/08/19 03:31:50;;;;;;;5.03;1.85;;;;;;;;;;6146329;28;20056;-67
2022/08/19 03:34:52;;;;;;;2.90;1.70;;;;;;;;;;6152138;28;20110;-67
2022/08/19 03:37:54;;;;;;;2.73;1.80;;;;;;;;;;6152342;28;20707;-68
2022/08/19 03:40:57;;;;;;;3.33;1.75;;;;;;;;;;6149448;28;20058;-68
2022/08/19 03:43:59;;;;;;;5.10;1.90;;;;;;;;;;6148887;28;20055;-66
2022/08/19 03:47:01;;;;;;;4.70;2.00;;;;;;;;;;6151347;28;20375;-69
2022/08/19 03:50:03;;;;;;;6.80;2.00;;;;;;;;;;6153169;28;20043;-69
2022/08/19 03:53:04;;;;;;;3.38;1.95;;;;;;;;;;6148861;28;20055;-69
2022/08/19 03:56:09;;;;;;;2.40;1.70;;;;;;;;;;6154253;28;20043;-66
2022/08/19 03:59:14;;;;;;;4.75;2.20;;;;;;;;;;6145585;28;20063;-66
2022/08/19 04:02:15;;;;;;;6.47;2.60;;;;;;;;;;6149827;28;20114;-67
2022/08/19 04:05:17;;;;;;;6.70;2.67;;;;;;;;;;6151860;28;20059;-69
2022/08/19 04:08:19;;;;;;;5.00;2.55;;;;;;;;;;6148613;28;20118;-67
2022/08/19 04:11:26;;;;;;;6.25;2.40;;;;;;;;;;6149131;28;20051;-68
2022/08/19 04:14:30;;;;;;;4.78;2.33;;;;;;;;;;6153086;28;20055;-66
2022/08/19 04:17:32;;;;;;;3.67;2.30;;;;;;;;;;6147413;28;20118;-67
2022/08/19 04:20:33;;;;;;;5.10;2.88;;;;;;;;;;6149677;28;20040;-66
2022/08/19 04:23:36;;;;;;;3.67;1.90;;;;;;;;;;6151270;28;20337;-68
2022/08/19 04:26:39;;;;;;;6.60;1.95;;;;;;;;;;6150360;28;20271;-67
2022/08/19 04:29:41;;;;;;;5.35;2.35;;;;;;;;;;6151573;28;20048;-66
2022/08/19 04:32:43;;;;;;;5.85;2.38;;;;;;;;;;6153178;28;20063;-66
2022/08/19 04:35:46;;;;;;;4.43;2.15;;;;;;;;;;6155118;28;20043;-66
2022/08/19 04:38:48;;;;;;;3.80;2.10;;;;;;;;;;6150379;28;20047;-67
2022/08/19 04:45:12;;;;;;;4.55;2.20;;;;;;;;;;6149067;28;20043;-66
2022/08/19 04:48:14;;;;;;;;;;;;;;;;;;6147239;28;20083;-66
2022/08/19 04:51:16;;;;;;;4.47;2.58;;;;;;;;;;6150710;28;19922;-67
2022/08/19 04:54:22;;;;;;;4.82;2.47;;;;;;;;;;6151928;28;20056;-66
2022/08/19 04:57:25;;;;;;;4.40;2.13;;;;;;;;;;6149470;28;20070;-66
2022/08/19 05:00:27;;;;;;;5.75;2.50;;;;;;;;;;6146454;28;22102;-67
2022/08/19 05:03:33;;;;;;;4.95;2.63;;;;;;;;;;6148902;28;20091;-66
2022/08/19 05:06:35;;;;;;;5.70;3.10;;;;;;;;;;6149123;28;20055;-67
2022/08/19 05:09:37;;;;;;;5.25;3.20;;;;;;;;;;6147145;28;20050;-66
2022/08/19 05:12:40;;;;;;;5.85;3.47;;;;;;;;;;6147782;28;20282;-66
2022/08/19 05:15:42;;;;;;;5.82;3.95;;;;;;;;;;6149794;28;20051;-66
2022/08/19 05:25:22;;;;;;;7.90;4.32;;;;;;;;;;6148132;28;20051;-66
2022/08/19 05:28:25;;;;;;;11.20;5.05;;;;;;;;;;6149724;28;20059;-67
2022/08/19 05:31:26;;;;;;;7.43;4.80;;;;;;;;;;6148422;28;20338;-69
2022/08/19 05:34:28;;;;;;;8.98;5.43;;;;;;;;;;6146172;28;20047;-70
2022/08/19 05:37:30;;;;;;;13.02;6.07;;;;;;;;;;6152561;28;20047;-66
2022/08/19 05:40:32;;;;;;;11.60;5.95;;;;;;;;;;6151452;28;20062;-69
2022/08/19 05:43:35;;;;;;;11.18;6.40;;;;;;;;;;6145824;28;20035;-68
2022/08/19 05:46:37;;;;;;;11.23;6.55;;;;;;;;;;6152956;28;20051;-67
2022/08/19 05:49:39;;;;;;;8.43;5.73;;;;;;;;;;6145789;28;20055;-67
2022/08/19 05:52:41;;;;;;;9.07;5.72;;;;;;;;;;6148260;28;20122;-67
2022/08/19 05:55:42;;;;;;;10.00;5.72;;;;;;;;;;6149858;28;20044;-67
2022/08/19 05:58:46;;;;;;;9.18;5.03;;;;;;;;;;6144620;28;20326;-67
2022/08/19 06:01:50;;;;;;;7.72;5.00;;;;;;;;;;6144603;28;20473;-67
2022/08/19 06:04:51;;;;;;;6.82;4.45;;;;;;;;;;6146832;28;20059;-67
2022/08/19 06:07:54;;;;;;;5.93;4.32;;;;;;;;;;6146885;28;20106;-67
2022/08/19 06:10:55;;;;;;;9.18;4.40;;;;;;;;;;6149374;28;20092;-66
2022/08/19 06:14:01;;;;;;;7.07;4.00;;;;;;;;;;6147166;28;20055;-66
2022/08/19 06:17:03;;;;;;;5.80;4.30;;;;;;;;;;6144785;28;20087;-68
2022/08/19 06:20:06;;;;;;;5.85;4.05;;;;;;;;;;6145517;28;20090;-67
2022/08/19 06:23:08;;;;;;;8.57;4.72;;;;;;;;;;6147192;28;20055;-66
2022/08/19 06:26:12;;;;;;;6.85;4.35;;;;;;;;;;6148727;28;20110;-67
2022/08/19 06:29:17;;;;;;;9.70;4.45;;;;;;;;;;6143745;28;20115;-68
2022/08/19 06:32:19;;;;;;;7.47;4.88;;;;;;;;;;6150491;28;20051;-66
2022/08/19 06:35:21;;;;;;;9.82;5.15;;;;;;;;;;6147941;28;20062;-66
2022/08/19 06:38:23;;;;;;;9.18;4.65;;;;;;;;;;6145437;28;20052;-67
2022/08/19 06:41:25;;;;;;;7.13;4.35;;;;;;;;;;6146621;28;20063;-67
2022/08/19 06:44:30;;;;;;;9.93;3.97;;;;;;;;;;6148407;28;20059;-67
2022/08/19 06:47:33;;;;;;;8.73;4.50;;;;;;;;;;6146522;28;20050;-67
2022/08/19 06:50:35;;;;;;;9.33;4.50;;;;;;;;;;6149181;28;20161;-68
2022/08/19 06:53:36;;;;;;;9.18;3.95;;;;;;;;;;6149424;28;20079;-67
2022/08/19 06:56:38;;;;;;;7.25;3.92;;;;;;;;;;6151232;28;20270;-67
2022/08/19 06:59:41;;;;;;;6.18;3.70;;;;;;;;;;6147884;28;20056;-66
2022/08/19 07:02:43;;;;;;;6.70;3.50;;;;;;;;;;6151094;28;20055;-67
2022/08/19 07:05:45;;;;;;;5.13;3.78;;;;;;;;;;6150586;28;20310;-67
2022/08/19 07:08:48;;;;;;;6.57;3.83;;;;;;;;;;6151145;28;20059;-67
2022/08/19 07:11:52;;;;;;;9.23;4.43;;;;;;;;;;6150871;28;20056;-67
2022/08/19 07:14:55;;;;;;;7.47;4.13;;;;;;;;;;6150455;28;20334;-67
2022/08/19 07:17:56;;;;;;;6.85;3.65;;;;;;;;;;6154168;28;20098;-67
2022/08/19 07:21:04;;;;;;;14.35;4.80;;;;;;;;;;6149538;28;20150;-68
2022/08/19 07:24:06;;;;;;;6.05;3.40;;;;;;;;;;6152252;28;20062;-69
2022/08/19 07:27:09;;;;;;;5.95;3.22;;;;;;;;;;6149511;28;20055;-68
2022/08/19 07:30:13;;;;;;;8.07;3.67;;;;;;;;;;6151736;28;20095;-68
2022/08/19 07:33:14;;;;;;;5.27;3.03;;;;;;;;;;6151181;28;20345;-67
2022/08/19 07:36:18;;;;;;;4.20;3.30;;;;;;;;;;6160027;28;20047;-70
2022/08/19 07:39:22;;;;;;;7.38;3.95;;;;;;;;;;6157923;28;20670;-69
2022/08/19 07:42:24;;;;;;;7.88;3.85;;;;;;;;;;6150883;28;20052;-68
2022/08/19 07:45:28;;;;;;;5.57;3.67;;;;;;;;;;6148691;28;20087;-69
2022/08/19 07:48:30;;;;;;;5.13;3.47;;;;;;;;;;6148058;28;20055;-68
2022/08/19 07:51:32;;;;;;;6.03;3.42;;;;;;;;;;6151050;28;20286;-70
2022/08/19 07:54:35;;;;;;;4.80;2.88;;;;;;;;;;6147902;28;20106;-69
2022/08/19 07:57:38;;;;;;;4.53;3.22;;;;;;;;;;6150314;28;20091;-67
2022/08/19 08:00:42;;;;;;;5.43;3.42;;;;;;;;;;6150140;28;20314;-67
2022/08/19 08:10:24;;;;;;;9.52;4.97;;;;;;;;;;6152310;28;20090;-69
2022/08/19 08:13:26;;;;;;;8.82;4.35;;;;;;;;;;6150335;28;20935;-68
2022/08/19 08:16:30;;;;;;;7.78;4.72;;;;;;;;;;6149023;28;20055;-68
2022/08/19 08:19:32;;;;;;;5.55;3.75;;;;;;;;;;6151804;28;20345;-68
2022/08/19 08:25:55;;;;;;;3.55;2.72;;;;;;;;;;6147513;28;20058;-70
2022/08/19 08:28:56;;;;;;;;;;;;;;;;;;6149719;28;20075;-68
2022/08/19 08:31:59;;;;;;;4.13;2.13;;;;;;;;;;6147961;28;20260;-71
2022/08/19 08:35:01;;;;;;;3.25;2.03;;;;;;;;;;6147980;28;20062;-71
2022/08/19 08:38:04;;;;;;;4.50;2.45;;;;;;;;;;6149179;28;20043;-68
2022/08/19 08:41:19;;;;;;;5.15;2.30;;;;;;;;;;6146810;28;20055;-69
2022/08/19 08:44:23;;;;;;;4.75;2.90;;;;;;;;;;6151715;28;20059;-68
2022/08/19 08:47:30;;;;;;;6.85;2.97;;;;;;;;;;6147335;28;20047;-68
2022/08/19 08:50:40;;;;;;;4.13;2.30;;;;;;;;;;6148056;28;20357;-68
2022/08/19 08:53:43;;;;;;;5.10;2.63;;;;;;;;;;6146757;28;20331;-68
2022/08/19 08:56:46;;;;;;;2.88;2.13;;;;;;;;;;6149391;28;20051;-68
2022/08/19 08:59:51;;;;;;;3.92;1.92;;;;;;;;;;6148906;28;20281;-69
2022/08/19 09:02:54;;;;;;;4.85;2.38;;;;;;;;;;6148101;28;20059;-69
2022/08/19 09:06:01;;;;;;;3.92;2.28;;;;;;;;;;6148173;28;20055;-68
2022/08/19 09:09:06;;;;;;;4.18;1.95;;;;;;;;;;6146863;28;20219;-69
2022/08/19 09:12:13;;;;;;;3.72;1.58;;;;;;;;;;6147080;28;20125;-69
2022/08/19 09:15:15;;;;;;;2.80;1.60;;;;;;;;;;6145735;28;20052;-69
2022/08/19 09:18:19;;;;;;;3.58;1.88;;;;;;;;;;6147090;28;20062;-69
2022/08/19 09:21:23;;;;;;;4.10;1.63;;;;;;;;;;6150044;28;20059;-69
2022/08/19 09:24:25;;;;;;;2.35;1.50;;;;;;;;;;6146577;28;21063;-69
2022/08/19 09:27:28;;;;;;;4.85;1.80;;;;;;;;;;6149447;28;20056;-69
2022/08/19 09:30:31;;;;;;;4.72;1.90;;;;;;;;;;6147865;28;20067;-70
2022/08/19 09:33:34;;;;;;;6.60;2.33;;;;;;;;;;6144692;28;20902;-69
2022/08/19 09:36:38;;;;;;;4.45;2.17;;;;;;;;;;6149175;28;20055;-69
2022/08/19 09:39:42;;;;;;;6.90;1.80;;;;;;;;;;6146206;28;20114;-69
2022/08/19 09:42:46;;;;;;;3.97;1.52;;;;;;;;;;6148180;28;20070;-71
2022/08/19 09:45:48;;;;;;;3.72;1.75;;;;;;;;;;6145188;28;20051;-70
2022/08/19 09:48:51;;;;;;;3.45;1.50;;;;;;;;;;6146621;28;20091;-69
2022/08/19 09:51:55;;;;;;;4.20;1.67;;;;;;;;;;6144575;28;20063;-69
2022/08/19 09:54:57;;;;;;;3.53;1.60;;;;;;;;;;6148811;28;20062;-70
2022/08/19 09:58:00;;;;;;;3.88;1.65;;;;;;;;;;6145891;28;20063;-69
2022/08/19 10:01:04;;;;;;;5.60;1.65;;;;;;;;;;6143104;28;20060;-69
2022/08/19 10:04:09;;;;;;;2.47;1.10;;;;;;;;;;6146957;28;20126;-70
2022/08/19 10:07:10;;;;;;;2.35;1.15;;;;;;;;;;6143815;28;20150;-69
2022/08/19 10:10:13;;;;;;;2.78;1.38;;;;;;;;;;6148539;28;20067;-69
2022/08/19 10:13:17;;;;;;;3.33;1.15;;;;;;;;;;6146484;28;20047;-70
2022/08/19 10:16:22;;;;;;;2.72;0.90;;;;;;;;;;6147576;28;20067;-69
2022/08/19 10:19:25;;;;;;;3.50;1.63;;;;;;;;;;6147016;28;20043;-70
2022/08/19 10:22:26;;;;;;;1.55;0.90;;;;;;;;;;6147233;28;20051;-69
2022/08/19 10:25:28;;;;;;;3.07;1.10;;;;;;;;;;6146709;28;20047;-69
2022/08/19 10:28:30;;;;;;;2.93;0.90;;;;;;;;;;6148662;28;20331;-69
2022/08/19 10:31:34;;;;;;;3.33;1.33;;;;;;;;;;6143127;28;20050;-70
2022/08/19 10:34:38;;;;;;;2.40;0.80;;;;;;;;;;6145346;28;20058;-69
2022/08/19 10:37:40;;;;;;;1.85;0.75;;;;;;;;;;6145270;28;20054;-70
2022/08/19 10:40:42;;;;;;;2.08;1.13;;;;;;;;;;6143506;28;20059;-70
2022/08/19 10:43:44;;;;;;;3.00;1.08;;;;;;;;;;6143235;28;20102;-69
2022/08/19 10:46:46;;;;;;;2.40;1.00;;;;;;;;;;6143799;28;20078;-69
2022/08/19 10:53:09;;;;;;;3.97;1.33;;;;;;;;;;6144063;28;20043;-70
2022/08/19 10:59:32;;;;;;;2.83;1.00;;;;;;;;;;6146006;28;20127;-71
2022/08/19 11:02:33;;;;;;;1.83;1.20;;;;;;;;;;6147988;28;20062;-71
2022/08/19 11:05:38;;;;;;;2.28;0.90;;;;;;;;;;6145256;28;20058;-69
2022/08/19 11:08:41;;;;;;;3.78;1.20;;;;;;;;;;6149479;28;20051;-70
2022/08/19 11:11:43;;;;;;;1.73;1.15;;;;;;;;;;6145932;28;20054;-70
2022/08/19 11:14:45;;;;;;;;;;;;;;;;;;6148591;28;20270;-70
2022/08/19 11:17:46;;;;;;;1.50;0.85;;;;;;;;;;6146566;28;19934;-69
2022/08/19 11:20:49;;;;;;;3.20;1.30;;;;;;;;;;6144495;28;20273;-70
2022/08/19 11:23:53;;;;;;;2.53;1.60;;;;;;;;;;6146694;28;20115;-69
2022/08/19 11:26:59;;;;;;;2.90;1.30;;;;;;;;;;6146839;28;20063;-70
2022/08/19 11:30:03;;;;;;;1.80;1.20;;;;;;;;;;6147084;28;20368;-70
2022/08/19 11:33:04;;;;;;;2.63;1.52;;;;;;;;;;6150209;28;20258;-69
2022/08/19 11:36:08;;;;;;;3.60;1.05;;;;;;;;;;6147752;28;20047;-69
2022/08/19 11:39:12;;;;;;;2.97;1.23;;;;;;;;;;6145203;28;20047;-69
2022/08/19 11:45:32;;;;;;;3.53;1.42;;;;;;;;;;6149992;28;20326;-71
2022/08/19 11:48:35;;;;;;;1.90;0.90;;;;;;;;;;6152847;28;20054;-70
2022/08/19 11:51:37;;;;;;;1.60;1.00;;;;;;;;;;6153807;28;20482;-69
2022/08/19 11:54:39;;;;;;;3.38;1.77;;;;;;;;;;6160421;28;20267;-70
2022/08/19 11:57:43;;;;;;;3.58;1.17;;;;;;;;;;6158224;28;20059;-69
2022/08/19 12:00:45;;;;;;;3.50;0.98;;;;;;;;;;6149259;28;20051;-70
2022/08/19 12:03:48;;;;;;;2.05;1.10;;;;;;;;;;6150997;28;20165;-70
2022/08/19 12:06:50;;;;;;;;;;;;;;;;;;6148488;28;20302;-71
2022/08/19 12:09:52;;;;;;;3.83;1.10;;;;;;;;;;6151283;28;20110;-70
2022/08/19 12:12:54;;;;;;;3.30;0.95;;;;;;;;;;6147450;28;20047;-70
2022/08/19 12:15:55;;;;;;;1.35;0.75;;;;;;;;;;6150199;28;20061;-70
2022/08/19 12:18:58;;;;;;;2.33;0.80;;;;;;;;;;6148115;28;20058;-72
2022/08/19 12:22:03;;;;;;;2.42;0.98;;;;;;;;;;6150642;28;20118;-72
2022/08/19 12:25:06;;;;;;;1.33;0.88;;;;;;;;;;6149106;28;20080;-69
2022/08/19 12:28:07;;;;;;;2.38;0.90;;;;;;;;;;6148255;28;20055;-70
2022/08/19 12:31:11;;;;;;;2.03;0.80;;;;;;;;;;6148062;28;20052;-70
2022/08/19 12:34:13;;;;;;;1.50;0.90;;;;;;;;;;6148639;28;20043;-71
2022/08/19 12:37:16;;;;;;;4.97;0.90;;;;;;;;;;6148087;28;20118;-71
2022/08/19 12:40:19;;;;;;;1.88;0.90;;;;;;;;;;6148981;28;20098;-71
2022/08/19 12:43:21;;;;;;;1.73;1.10;;;;;;;;;;6146603;28;20059;-70
2022/08/19 12:46:23;;;;;;;2.17;0.85;;;;;;;;;;6146946;28;20334;-71
2022/08/19 12:49:24;;;;;;;1.40;1.20;;;;;;;;;;6149052;28;20061;-69
2022/08/19 12:52:27;;;;;;;1.60;1.00;;;;;;;;;;6149956;28;20386;-70
2022/08/19 12:55:30;;;;;;;1.48;0.95;;;;;;;;;;6150301;28;20142;-70
2022/08/19 12:58:34;;;;;;;3.00;1.40;;;;;;;;;;6145695;28;20049;-72
2022/08/19 13:01:36;;;;;;;2.03;0.98;;;;;;;;;;6146731;28;20138;-71
2022/08/19 13:04:40;;;;;;;2.25;1.10;;;;;;;;;;6149535;28;20055;-71
2022/08/19 13:07:44;;;;;;;1.17;0.88;;;;;;;;;;6148446;28;20512;-70
2022/08/19 13:10:46;;;;;;;1.52;0.95;;;;;;;;;;6146616;28;20069;-71
2022/08/19 13:13:50;;;;;;;1.88;1.25;;;;;;;;;;6146075;28;20090;-72
2022/08/19 13:16:52;;;;;;;2.22;0.95;;;;;;;;;;6149338;28;20052;-70
2022/08/19 13:19:53;;;;;;;4.45;1.23;;;;;;;;;;6149391;28;20051;-71
2022/08/19 13:22:57;;;;;;;2.35;0.98;;;;;;;;;;6148141;28;20062;-71
2022/08/19 13:25:59;;;;;;;2.05;1.02;;;;;;;;;;6145474;28;20693;-70
2022/08/19 13:35:39;;;;;;;2.17;1.20;;;;;;;;;;6145130;28;20043;-71
2022/08/19 13:38:42;;;;;;;;;;;;;;;;;;6147017;28;20074;-70
2022/08/19 13:41:47;;;;;;;2.00;0.93;;;;;;;;;;6144125;28;19922;-71
2022/08/19 13:44:49;;;;;;;2.72;0.90;;;;;;;;;;6146848;28;20346;-71
2022/08/19 13:47:53;;;;;;;1.33;0.90;;;;;;;;;;6148101;28;20059;-70
2022/08/19 13:50:55;;;;;;;1.90;1.02;;;;;;;;;;6148141;28;20365;-70
2022/08/19 13:53:58;;;;;;;1.60;1.10;;;;;;;;;;6147529;28;20268;-70
2022/08/19 13:57:00;;;;;;;2.17;1.15;;;;;;;;;;6147132;28;20111;-71
2022/08/19 14:00:03;;;;;;;1.80;1.10;;;;;;;;;;6144517;28;20393;-71
2022/08/19 14:03:05;;;;;;;2.97;1.02;;;;;;;;;;6147131;28;20207;-71
2022/08/19 14:06:07;;;;;;;1.95;1.00;;;;;;;;;;6146708;28;20227;-71
2022/08/19 14:09:10;;;;;;;1.60;1.00;;;;;;;;;;6147817;28;20102;-72
2022/08/19 14:12:11;;;;;;;2.22;1.38;;;;;;;;;;6148598;28;20095;-71
2022/08/19 14:15:14;;;;;;;2.30;0.90;;;;;;;;;;6145611;28;20058;-71
2022/08/19 14:18:16;;;;;;;1.80;1.20;;;;;;;;;;6145768;28;20204;-71
2022/08/19 14:21:22;;;;;;;2.70;0.90;;;;;;;;;;6147755;28;20056;-70
2022/08/19 14:24:25;;;;;;;2.75;1.00;;;;;;;;;;6147189;28;20070;-71
2022/08/19 14:27:26;;;;;;;1.25;0.80;;;;;;;;;;6147100;28;20078;-71
2022/08/19 14:30:30;;;;;;;1.33;0.90;;;;;;;;;;6147325;28;20051;-70
2022/08/19 14:33:32;;;;;;;0.98;0.82;;;;;;;;;;6146390;28;20326;-71
2022/08/19 14:36:34;;;;;;;1.40;1.10;;;;;;;;;;6143772;28;20278;-71
2022/08/19 14:39:38;;;;;;;2.83;1.10;;;;;;;;;;6147140;28;20051;-71
2022/08/19 14:42:39;;;;;;;1.55;0.88;;;;;;;;;;6145753;28;20058;-71
2022/08/19 14:45:41;;;;;;;1.95;0.88;;;;;;;;;;6145655;28;20063;-70
2022/08/19 14:48:43;;;;;;;0.70;0.57;;;;;;;;;;6145355;28;20110;-70
2022/08/19 14:51:46;;;;;;;2.75;0.73;;;;;;;;;;6147503;28;20051;-70
2022/08/19 14:54:49;;;;;;;0.52;0.30;;;;;;;;;;6147599;28;20062;-71
2022/08/19 14:57:51;;;;;;;0.68;0.50;;;;;;;;;;6142862;28;20043;-71
2022/08/19 15:00:53;;;;;;;1.40;0.40;;;;;;;;;;6141591;28;20098;-70
2022/08/19 15:03:54;;;;;;;1.30;0.37;;;;;;;;;;6143771;28;20066;-71
2022/08/19 15:06:56;;;;;;;0.60;0.40;;;;;;;;;;6144990;28;20063;-70
2022/08/19 15:09:59;;;;;;;0.60;0.40;;;;;;;;;;6145506;28;20282;-72
2022/08/19 15:13:01;;;;;;;0.90;0.50;;;;;;;;;;6148210;28;20145;-70
2022/08/19 15:16:04;;;;;;;3.60;0.40;;;;;;;;;;6151581;28;20047;-70
2022/08/19 15:19:05;;;;;;;;;;;;;;;;;;6152190;28;20051;-70
2022/08/19 15:22:07;;;;;;;0.60;0.40;;;;;;;;;;6149192;28;20121;-70
2022/08/19 15:25:12;;;;;;;0.28;0.28;;;;;;;;;;6149828;28;20063;-70
2022/08/19 15:28:15;;;;;;;1.08;0.40;;;;;;;;;;6152261;28;20083;-70
2022/08/19 15:31:19;;;;;;;0.70;0.30;;;;;;;;;;6148032;28;20218;-71
2022/08/19 15:34:20;;;;;;;0.63;0.32;;;;;;;;;;6155523;28;20390;-70
2022/08/19 15:37:23;;;;;;;1.73;0.30;;;;;;;;;;6149054;28;20055;-70
2022/08/19 15:40:27;;;;;;;0.30;0.30;;;;;;;;;;6149350;28;20051;-70
2022/08/19 15:43:29;;;;;;;1.27;0.40;;;;;;;;;;6147292;28;20263;-70
2022/08/19 15:46:32;;;;;;;1.27;0.30;;;;;;;;;;6145929;28;20059;-69
2022/08/19 15:49:34;;;;;;;1.38;0.30;;;;;;;;;;6151218;28;20062;-70
2022/08/19 15:52:36;;;;;;;0.70;0.40;;;;;;;;;;6149067;28;20342;-72
2022/08/19 15:55:44;;;;;;;3.20;0.60;;;;;;;;;;6149918;28;22101;-68
2022/08/19 16:08:53;;;;;;;3.90;0.50;;;;;;;;;;6105239;29;20124;-69
2022/08/19 16:11:57;;;;;;;1.08;0.57;;;;;;;;;;6106371;29;20111;-69
2022/08/19 16:14:58;;;;;;;1.17;0.40;;;;;;;;;;6101660;29;20090;-72
2022/08/19 16:18:03;;;;;;;0.35;0.30;;;;;;;;;;6098802;29;20128;-70
2022/08/19 16:21:06;;;;;;;0.55;0.35;;;;;;;;;;6099596;29;20057;-70
2022/08/19 16:24:09;;;;;;;0.55;0.40;;;;;;;;;;6097486;29;20343;-70
2022/08/19 16:27:12;;;;;;;2.75;0.45;;;;;;;;;;6099710;29;20237;-70
2022/08/19 16:30:14;;;;;;;2.38;0.47;;;;;;;;;;6098219;29;20106;-70
2022/08/19 16:33:15;;;;;;;1.10;0.50;;;;;;;;;;6099756;29;20060;-70
2022/08/19 16:36:17;;;;;;;0.82;0.50;;;;;;;;;;6099659;28;20092;-70
2022/08/19 16:39:19;;;;;;;2.40;0.67;;;;;;;;;;6148004;28;20102;-70
2022/08/19 16:42:22;;;;;;;0.63;0.50;;;;;;;;;;6149277;28;20055;-70
2022/08/19 16:45:24;;;;;;;1.13;0.77;;;;;;;;;;6146773;28;20141;-70
2022/08/19 16:48:28;;;;;;;2.57;0.70;;;;;;;;;;6148124;28;20071;-70
2022/08/19 16:51:32;;;;;;;1.17;0.60;;;;;;;;;;6146983;28;20261;-70
2022/08/19 16:54:34;;;;;;;1.33;0.50;;;;;;;;;;6150535;28;20047;-71
2022/08/19 16:57:38;;;;;;;0.45;0.43;;;;;;;;;;6145329;28;20146;-70
2022/08/19 17:00:39;;;;;;;1.10;0.60;;;;;;;;;;6145086;28;20055;-69
2022/08/19 17:03:41;;;;;;;2.28;0.63;;;;;;;;;;6149815;28;20051;-70
2022/08/19 17:06:43;;;;;;;0.60;0.57;;;;;;;;;;6145236;28;20157;-69
2022/08/19 17:09:45;;;;;;;1.83;1.30;;;;;;;;;;6150112;28;20055;-73
2022/08/19 17:12:48;;;;;;;3.25;2.10;;;;;;;;;;6146745;28;20051;-69
2022/08/19 17:15:49;;;;;;;11.38;8.55;;;;;;;;;;6149094;28;20342;-69
2022/08/19 17:18:51;;;;;;;6.68;3.28;;;;;;;;;;6146451;28;20057;-66
2022/08/19 17:21:53;;;;;;;2.25;1.15;;;;;;;;;;6147435;28;20053;-73
2022/08/19 17:24:55;;;;;;;183.30;115.55;;;;;;;;;;6151913;28;20063;-64
2022/08/19 17:27:58;;;;;;;4.55;2.63;;;;;;;;;;6147946;28;20058;-70
2022/08/19 17:31:00;;;;;;;7.30;3.00;;;;;;;;;;6149471;28;20098;-66
2022/08/19 17:34:02;;;;;;;33.25;25.83;;;;;;;;;;6145937;28;20326;-71
2022/08/19 17:37:03;;;;;;;10.07;7.15;;;;;;;;;;6148724;28;20327;-64
2022/08/19 17:40:07;;;;;;;23.10;17.75;;;;;;;;;;6145060;28;20227;-70
2022/08/19 17:43:11;;;;;;;5.47;3.67;;;;;;;;;;6145051;28;20096;-68
2022/08/19 17:46:16;;;;;;;5.60;2.00;;;;;;;;;;6147028;28;20297;-69
2022/08/19 17:49:18;;;;;;;3.75;2.40;;;;;;;;;;6147452;28;20349;-69
2022/08/19 17:52:20;;;;;;;3.80;2.40;;;;;;;;;;6148799;28;20114;-70
2022/08/19 17:55:23;;;;;;;6.70;5.67;;;;;;;;;;6145706;28;20094;-70
2022/08/19 17:58:26;;;;;;;5.05;3.83;;;;;;;;;;6149369;28;20428;-70
2022/08/19 18:01:28;;;;;;;3.50;2.53;;;;;;;;;;6148104;28;20059;-69
2022/08/19 18:04:30;;;;;;;2.28;1.23;;;;;;;;;;6151058;28;20548;-72
2022/08/19 18:07:33;;;;;;;2.38;0.85;;;;;;;;;;6144770;28;20059;-78
2022/08/19 18:10:35;;;;;;;2.78;0.73;;;;;;;;;;6146940;28;20054;-76
2022/08/19 18:13:39;;;;;;;1.17;0.70;;;;;;;;;;6147030;28;20107;-74
2022/08/19 18:16:41;;;;;;;4.28;1.20;;;;;;;;;;6145439;28;20303;-72
2022/08/19 18:19:43;;;;;;;3.10;0.80;;;;;;;;;;6147817;28;20054;-71
2022/08/19 18:22:47;;;;;;;2.88;1.27;;;;;;;;;;6146577;28;20134;-70
2022/08/19 18:25:48;;;;;;;1.40;0.85;;;;;;;;;;6148841;28;20385;-68
2022/08/19 18:28:52;;;;;;;1.17;0.68;;;;;;;;;;6145521;28;20131;-70
2022/08/19 18:31:56;;;;;;;;;;;;;;;;;;6145979;28;20082;-68
2022/08/19 18:35:00;;;;;;;2.75;1.02;;;;;;;;;;6144955;28;19926;-77
2022/08/19 18:49:02;;;;;;;6.38;4.25;;;;;;;;;;6150366;28;20050;-76
2022/08/19 18:51:38;;;;;;;24.33;21.23;;;;;;;;;;6097401;29;20063;-74
2022/08/19 18:54:40;;;;;;;24.88;21.73;;;;;;;;;;6100913;29;20055;-70
2022/08/19 18:57:42;;;;;;;5.13;1.52;;;;;;;;;;6099637;29;20119;-70
2022/08/19 19:00:45;;;;;;;1.90;1.10;;;;;;;;;;6093653;29;20067;-72
2022/08/19 19:03:49;;;;;;;4.28;1.20;;;;;;;;;;6095348;29;20092;-70
2022/08/19 19:06:51;;;;;;;3.38;1.40;;;;;;;;;;6095970;29;20072;-67
2022/08/19 19:09:52;;;;;;;9.27;6.45;;;;;;;;;;6096976;29;20059;-70
2022/08/19 19:12:54;;;;;;;11.55;6.53;;;;;;;;;;6095800;29;20282;-73